createdAt,value
2016-04-01T00:00:07.860Z,0
2016-04-01T00:01:07.800Z,0
2016-04-01T00:02:07.740Z,0
2016-04-01T00:03:07.712Z,0
2016-04-01T00:04:07.652Z,0
2016-04-01T00:05:07.608Z,0
2016-04-01T00:06:07.563Z,0
2016-04-01T00:07:07.535Z,0
2016-04-01T00:08:07.460Z,0
2016-04-01T00:09:07.400Z,0
2016-04-01T00:10:07.340Z,0
2016-04-01T00:11:07.327Z,0
2016-04-01T00:12:07.252Z,0
2016-04-01T00:13:07.192Z,0
2016-04-01T00:14:07.163Z,0
2016-04-01T00:15:07.088Z,0
2016-04-01T00:16:07.043Z,0
2016-04-01T00:17:07.031Z,0
2016-04-01T00:18:06.971Z,0
2016-04-01T00:19:06.910Z,0
2016-04-01T00:20:09.039Z,0
2016-04-01T00:21:06.776Z,0
2016-04-01T00:22:06.747Z,0
2016-04-01T00:23:06.704Z,0
2016-04-01T00:24:06.643Z,0
2016-04-01T00:25:06.584Z,0
2016-04-01T00:26:06.540Z,0
2016-04-01T00:27:06.479Z,0
2016-04-01T00:28:06.435Z,0
2016-04-01T00:29:06.391Z,0
2016-04-01T00:30:06.315Z,0
2016-04-01T00:31:06.303Z,0
2016-04-01T00:32:06.258Z,0
2016-04-01T00:33:06.199Z,0
2016-04-01T00:34:06.139Z,0
2016-04-01T00:35:06.078Z,0
2016-04-01T00:36:06.020Z,0
2016-04-01T00:37:05.991Z,0
2016-04-01T00:38:05.915Z,0
2016-04-01T00:39:05.887Z,0
2016-04-01T00:40:05.827Z,0
2016-04-01T00:41:05.783Z,0
2016-04-01T00:42:05.708Z,0
2016-04-01T00:43:05.647Z,0
2016-04-01T00:44:05.635Z,0
2016-04-01T00:45:05.574Z,0
2016-04-01T00:46:05.530Z,0
2016-04-01T00:47:05.361Z,0
2016-04-01T00:48:05.426Z,0
2016-04-01T00:49:05.382Z,0
2016-04-01T00:50:05.338Z,0
2016-04-01T00:51:05.294Z,0
2016-04-01T00:52:05.250Z,0
2016-04-01T00:53:05.159Z,0
2016-04-01T00:54:05.114Z,0
2016-04-01T00:55:05.071Z,0
2016-04-01T00:56:05.011Z,0
2016-04-01T00:57:04.967Z,0
2016-04-01T00:58:04.891Z,0
2016-04-01T00:59:04.847Z,0
2016-04-01T01:00:04.803Z,0
2016-04-01T01:01:04.759Z,0
2016-04-01T01:02:04.699Z,0
2016-04-01T01:03:04.639Z,0
2016-04-01T01:04:04.595Z,0
2016-04-01T01:05:04.535Z,0
2016-04-01T01:06:04.506Z,0
2016-04-01T01:07:04.462Z,0
2016-04-01T01:08:04.386Z,0
2016-04-01T01:09:04.342Z,0
2016-04-01T01:10:04.298Z,0
2016-04-01T01:11:04.239Z,0
2016-04-01T01:12:04.194Z,0
2016-04-01T01:13:04.150Z,0
2016-04-01T01:14:04.091Z,0
2016-04-01T01:15:04.030Z,0
2016-04-01T01:16:03.971Z,0
2016-04-01T01:17:03.974Z,0
2016-04-01T01:18:03.882Z,0
2016-04-01T01:19:03.822Z,0
2016-04-01T01:20:03.763Z,0
2016-04-01T01:21:03.734Z,0
2016-04-01T01:22:03.674Z,0
2016-04-01T01:23:03.630Z,0
2016-04-01T01:24:03.585Z,0
2016-04-01T01:25:03.510Z,0
2016-04-01T01:26:03.466Z,0
2016-04-01T01:27:03.468Z,0
2016-04-01T01:28:03.362Z,0
2016-04-01T01:29:03.349Z,0
2016-04-01T01:30:03.259Z,0
2016-04-01T01:31:03.198Z,0
2016-04-01T01:32:03.154Z,0
2016-04-01T01:33:03.110Z,0
2016-04-01T01:34:03.050Z,0
2016-04-01T01:35:03.022Z,0
2016-04-01T01:36:02.977Z,0
2016-04-01T01:37:02.902Z,0
2016-04-01T01:38:02.858Z,0
2016-04-01T01:39:02.798Z,0
2016-04-01T01:40:02.753Z,0
2016-04-01T01:41:02.678Z,0
2016-04-01T01:42:02.666Z,0
2016-04-01T01:43:02.605Z,0
2016-04-01T01:44:02.546Z,0
2016-04-01T01:45:02.470Z,0
2016-04-01T01:46:02.427Z,0
2016-04-01T01:47:02.382Z,0
2016-04-01T01:48:02.322Z,0
2016-04-01T01:49:02.278Z,0
2016-04-01T01:50:02.218Z,0
2016-04-01T01:51:02.158Z,0
2016-04-01T01:52:02.130Z,0
2016-04-01T01:53:02.054Z,0
2016-04-01T01:54:02.041Z,0
2016-04-01T01:55:01.982Z,0
2016-04-01T01:56:01.922Z,0
2016-04-01T01:57:01.846Z,0
2016-04-01T01:58:01.818Z,0
2016-04-01T01:59:01.759Z,0
2016-04-01T02:00:01.714Z,0
2016-04-01T02:01:01.670Z,0
2016-04-01T02:02:01.609Z,0
2016-04-01T02:03:01.534Z,0
2016-04-01T02:04:01.490Z,0
2016-04-01T02:05:01.445Z,0
2016-04-01T02:06:01.386Z,0
2016-04-01T02:07:01.342Z,0
2016-04-01T02:08:01.319Z,0
2016-04-01T02:09:01.227Z,0
2016-04-01T02:10:01.183Z,0
2016-04-01T02:11:01.139Z,0
2016-04-01T02:12:01.095Z,0
2016-04-01T02:13:01.097Z,0
2016-04-01T02:14:01.022Z,0
2016-04-01T02:15:00.915Z,0
2016-04-01T02:16:00.871Z,0
2016-04-01T02:17:00.874Z,0
2016-04-01T02:18:00.783Z,0
2016-04-01T02:19:00.724Z,0
2016-04-01T02:20:00.679Z,0
2016-04-01T02:21:00.618Z,0
2016-04-01T02:22:00.574Z,0
2016-04-01T02:23:00.499Z,0
2016-04-01T02:24:00.471Z,0
2016-04-01T02:25:00.426Z,0
2016-04-01T02:26:00.382Z,0
2016-04-01T02:27:00.323Z,0
2016-04-01T02:28:00.263Z,0
2016-04-01T02:29:00.235Z,0
2016-04-01T02:30:00.159Z,0
2016-04-01T02:31:00.099Z,0
2016-04-01T02:32:00.039Z,0
2016-04-01T02:33:00.026Z,0
2016-04-01T02:33:59.919Z,0
2016-04-01T02:34:59.906Z,0
2016-04-01T02:35:59.831Z,0
2016-04-01T02:36:59.803Z,0
2016-04-01T02:37:59.743Z,0
2016-04-01T02:38:59.699Z,0
2016-04-01T02:39:59.623Z,0
2016-04-01T02:40:59.563Z,0
2016-04-01T02:41:59.550Z,0
2016-04-01T02:42:59.521Z,0
2016-04-01T02:43:59.462Z,0
2016-04-01T02:44:59.402Z,0
2016-04-01T02:45:59.342Z,0
2016-04-01T02:46:59.282Z,0
2016-04-01T02:47:59.207Z,0
2016-04-01T02:48:59.178Z,0
2016-04-01T02:49:59.134Z,0
2016-04-01T02:50:59.074Z,0
2016-04-01T02:51:58.984Z,0
2016-04-01T02:52:58.955Z,0
2016-04-01T02:53:58.911Z,0
2016-04-01T02:54:58.882Z,0
2016-04-01T02:55:58.823Z,0
2016-04-01T02:56:58.732Z,0
2016-04-01T02:57:58.718Z,0
2016-04-01T02:58:58.659Z,0
2016-04-01T02:59:58.584Z,0
2016-04-01T03:00:58.851Z,0
2016-04-01T03:01:58.511Z,0
2016-04-01T03:02:58.467Z,0
2016-04-01T03:03:58.375Z,0
2016-04-01T03:04:58.190Z,0
2016-04-01T03:05:58.271Z,0
2016-04-01T03:06:58.275Z,0
2016-04-01T03:07:58.167Z,0
2016-04-01T03:08:58.122Z,0
2016-04-01T03:09:58.079Z,0
2016-04-01T03:10:58.019Z,0
2016-04-01T03:11:57.959Z,0
2016-04-01T03:12:57.978Z,0
2016-04-01T03:13:57.918Z,0
2016-04-01T03:14:57.827Z,0
2016-04-01T03:15:57.813Z,0
2016-04-01T03:16:57.738Z,0
2016-04-01T03:17:57.693Z,0
2016-04-01T03:18:57.602Z,0
2016-04-01T03:19:57.543Z,0
2016-04-01T03:20:57.499Z,0
2016-04-01T03:21:57.455Z,0
2016-04-01T03:22:57.395Z,0
2016-04-01T03:23:57.351Z,0
2016-04-01T03:24:57.323Z,0
2016-04-01T03:25:57.262Z,0
2016-04-01T03:26:57.187Z,0
2016-04-01T03:27:57.143Z,0
2016-04-01T03:28:57.084Z,0
2016-04-01T03:29:57.023Z,0
2016-04-01T03:30:56.995Z,0
2016-04-01T03:31:56.935Z,0
2016-04-01T03:32:56.891Z,0
2016-04-01T03:33:56.861Z,0
2016-04-01T03:34:56.770Z,0
2016-04-01T03:35:56.711Z,0
2016-04-01T03:36:56.683Z,0
2016-04-01T03:37:56.639Z,0
2016-04-01T03:38:56.578Z,0
2016-04-01T03:39:56.534Z,0
2016-04-01T03:40:56.475Z,0
2016-04-01T03:41:56.446Z,0
2016-04-01T03:42:56.371Z,0
2016-04-01T03:43:56.311Z,0
2016-04-01T03:44:56.283Z,0
2016-04-01T03:45:56.222Z,0
2016-04-01T03:46:56.163Z,0
2016-04-01T03:47:56.103Z,0
2016-04-01T03:48:56.058Z,0
2016-04-01T03:49:55.983Z,0
2016-04-01T03:50:55.955Z,0
2016-04-01T03:51:55.895Z,0
2016-04-01T03:52:55.851Z,0
2016-04-01T03:53:55.822Z,0
2016-04-01T03:54:55.763Z,0
2016-04-01T03:55:55.702Z,0
2016-04-01T03:56:55.658Z,0
2016-04-01T03:57:55.598Z,0
2016-04-01T03:58:55.570Z,0
2016-04-01T03:59:55.525Z,0
2016-04-01T04:00:55.278Z,0
2016-04-01T04:01:55.422Z,0
2016-04-01T04:02:55.346Z,0
2016-04-01T04:03:55.303Z,0
2016-04-01T04:04:55.258Z,0
2016-04-01T04:05:55.214Z,0
2016-04-01T04:06:55.154Z,0
2016-04-01T04:07:55.094Z,0
2016-04-01T04:08:55.050Z,0
2016-04-01T04:09:54.990Z,0
2016-04-01T04:10:54.946Z,0
2016-04-01T04:11:54.902Z,0
2016-04-01T04:12:54.889Z,0
2016-04-01T04:13:54.829Z,0
2016-04-01T04:14:54.753Z,0
2016-04-01T04:15:54.710Z,0
2016-04-01T04:16:54.666Z,0
2016-04-01T04:17:54.605Z,0
2016-04-01T04:18:54.530Z,0
2016-04-01T04:19:54.517Z,0
2016-04-01T04:20:54.660Z,0
2016-04-01T04:21:54.397Z,0
2016-04-01T04:22:54.338Z,0
2016-04-01T04:23:54.294Z,0
2016-04-01T04:24:54.249Z,0
2016-04-01T04:25:54.190Z,0
2016-04-01T04:26:54.146Z,0
2016-04-01T04:27:54.086Z,0
2016-04-01T04:28:54.041Z,0
2016-04-01T04:29:53.982Z,0
2016-04-01T04:30:53.938Z,0
2016-04-01T04:31:53.878Z,0
2016-04-01T04:32:53.834Z,0
2016-04-01T04:33:53.804Z,0
2016-04-01T04:34:53.745Z,0
2016-04-01T04:35:53.701Z,0
2016-04-01T04:36:53.641Z,0
2016-04-01T04:37:53.597Z,0
2016-04-01T04:38:53.537Z,0
2016-04-01T04:39:53.492Z,0
2016-04-01T04:40:53.433Z,0
2016-04-01T04:41:53.389Z,0
2016-04-01T04:42:53.329Z,0
2016-04-01T04:43:53.270Z,0
2016-04-01T04:44:53.241Z,0
2016-04-01T04:45:53.181Z,0
2016-04-01T04:46:53.136Z,0
2016-04-01T04:47:53.092Z,0
2016-04-01T04:48:53.017Z,0
2016-04-01T04:49:52.972Z,0
2016-04-01T04:50:52.913Z,0
2016-04-01T04:51:52.916Z,0
2016-04-01T04:52:52.824Z,0
2016-04-01T04:53:52.780Z,0
2016-04-01T04:54:52.736Z,0
2016-04-01T04:55:52.692Z,0
2016-04-01T04:56:52.633Z,0
2016-04-01T04:57:52.557Z,0
2016-04-01T04:58:52.496Z,0
2016-04-01T04:59:52.454Z,0
2016-04-01T05:00:52.409Z,0
2016-04-01T05:01:52.364Z,0
2016-04-01T05:02:52.337Z,0
2016-04-01T05:03:52.276Z,0
2016-04-01T05:04:52.217Z,0
2016-04-01T05:05:52.156Z,4
2016-04-01T05:06:52.097Z,4
2016-04-01T05:07:52.052Z,0
2016-04-01T05:08:51.992Z,0
2016-04-01T05:09:51.948Z,0
2016-04-01T05:10:51.889Z,0
2016-04-01T05:11:51.860Z,0
2016-04-01T05:12:51.801Z,0
2016-04-01T05:13:51.772Z,0
2016-04-01T05:14:51.696Z,0
2016-04-01T05:15:51.653Z,0
2016-04-01T05:16:51.639Z,0
2016-04-01T05:17:51.563Z,0
2016-04-01T05:18:51.488Z,0
2016-04-01T05:19:51.444Z,0
2016-04-01T05:20:51.369Z,0
2016-04-01T05:21:51.325Z,0
2016-04-01T05:22:51.280Z,0
2016-04-01T05:23:51.252Z,0
2016-04-01T05:24:51.192Z,4
2016-04-01T05:25:51.133Z,4
2016-04-01T05:26:51.088Z,0
2016-04-01T05:27:51.043Z,0
2016-04-01T05:28:50.968Z,0
2016-04-01T05:29:50.924Z,0
2016-04-01T05:30:50.896Z,0
2016-04-01T05:31:50.835Z,0
2016-04-01T05:32:50.776Z,0
2016-04-01T05:33:50.716Z,0
2016-04-01T05:34:50.656Z,0
2016-04-01T05:35:50.612Z,0
2016-04-01T05:36:50.568Z,4
2016-04-01T05:37:50.509Z,4
2016-04-01T05:38:50.465Z,4
2016-04-01T05:39:50.420Z,0
2016-04-01T05:40:50.422Z,0
2016-04-01T05:41:50.332Z,4
2016-04-01T05:42:50.319Z,4
2016-04-01T05:43:50.243Z,4
2016-04-01T05:44:50.152Z,4
2016-04-01T05:45:50.123Z,0
2016-04-01T05:46:50.048Z,0
2016-04-01T05:47:49.989Z,0
2016-04-01T05:48:49.944Z,4
2016-04-01T05:49:49.883Z,0
2016-04-01T05:50:49.871Z,0
2016-04-01T05:51:49.811Z,0
2016-04-01T05:52:49.767Z,4
2016-04-01T05:53:49.708Z,4
2016-04-01T05:54:49.647Z,0
2016-04-01T05:55:49.588Z,0
2016-04-01T05:56:49.575Z,4
2016-04-01T05:57:49.499Z,4
2016-04-01T05:58:49.440Z,4
2016-04-01T05:59:49.380Z,4
2016-04-01T06:00:49.335Z,4
2016-04-01T06:01:49.277Z,4
2016-04-01T06:02:49.231Z,0
2016-04-01T06:03:49.187Z,0
2016-04-01T06:04:49.128Z,4
2016-04-01T06:05:49.083Z,0
2016-04-01T06:06:49.040Z,4
2016-04-01T06:07:48.952Z,4
2016-04-01T06:08:48.924Z,4
2016-04-01T06:09:48.880Z,4
2016-04-01T06:10:48.805Z,4
2016-04-01T06:11:48.760Z,4
2016-04-01T06:12:48.716Z,4
2016-04-01T06:13:48.672Z,4
2016-04-01T06:14:48.628Z,4
2016-04-01T06:15:48.615Z,8
2016-04-01T06:16:48.524Z,4
2016-04-01T06:17:48.495Z,8
2016-04-01T06:18:48.419Z,8
2016-04-01T06:19:48.376Z,4
2016-04-01T06:20:48.299Z,4
2016-04-01T06:21:48.270Z,4
2016-04-01T06:22:48.211Z,4
2016-04-01T06:23:48.152Z,4
2016-04-01T06:24:48.107Z,4
2016-04-01T06:25:48.062Z,4
2016-04-01T06:26:48.019Z,8
2016-04-01T06:27:47.818Z,8
2016-04-01T06:28:47.946Z,8
2016-04-01T06:29:47.870Z,4
2016-04-01T06:30:47.811Z,4
2016-04-01T06:31:47.751Z,8
2016-04-01T06:32:47.536Z,8
2016-04-01T06:33:47.664Z,8
2016-04-01T06:34:47.603Z,8
2016-04-01T06:35:47.544Z,4
2016-04-01T06:36:47.484Z,4
2016-04-01T06:37:47.439Z,8
2016-04-01T06:38:47.395Z,8
2016-04-01T06:39:47.351Z,12
2016-04-01T06:40:47.291Z,12
2016-04-01T06:41:47.263Z,12
2016-04-01T06:42:47.202Z,12
2016-04-01T06:43:47.127Z,8
2016-04-01T06:44:47.083Z,12
2016-04-01T06:45:47.038Z,12
2016-04-01T06:46:46.979Z,8
2016-04-01T06:47:46.935Z,12
2016-04-01T06:48:47.032Z,12
2016-04-01T06:49:46.816Z,12
2016-04-01T06:50:46.771Z,12
2016-04-01T06:51:46.727Z,16
2016-04-01T06:52:46.683Z,12
2016-04-01T06:53:46.638Z,16
2016-04-01T06:54:46.548Z,16
2016-04-01T06:55:46.519Z,12
2016-04-01T06:56:46.475Z,16
2016-04-01T06:57:46.415Z,12
2016-04-01T06:58:46.401Z,12
2016-04-01T06:59:46.358Z,8
2016-04-01T07:00:46.282Z,8
2016-04-01T07:01:46.223Z,16
2016-04-01T07:02:46.334Z,12
2016-04-01T07:03:46.197Z,12
2016-04-01T07:04:46.075Z,16
2016-04-01T07:05:46.015Z,16
2016-04-01T07:06:45.939Z,16
2016-04-01T07:07:46.050Z,16
2016-04-01T07:08:45.835Z,12
2016-04-01T07:09:45.822Z,16
2016-04-01T07:10:45.778Z,12
2016-04-01T07:11:45.719Z,12
2016-04-01T07:12:45.656Z,12
2016-04-01T07:13:45.596Z,12
2016-04-01T07:14:45.552Z,12
2016-04-01T07:15:45.507Z,12
2016-04-01T07:16:45.463Z,16
2016-04-01T07:17:45.404Z,12
2016-04-01T07:18:45.453Z,16
2016-04-01T07:19:45.300Z,12
2016-04-01T07:20:45.272Z,12
2016-04-01T07:21:45.211Z,12
2016-04-01T07:22:45.151Z,12
2016-04-01T07:23:45.091Z,12
2016-04-01T07:24:45.049Z,16
2016-04-01T07:25:45.003Z,12
2016-04-01T07:26:44.943Z,16
2016-04-01T07:27:44.899Z,16
2016-04-01T07:28:44.871Z,12
2016-04-01T07:29:44.795Z,12
2016-04-01T07:30:44.752Z,8
2016-04-01T07:31:44.676Z,12
2016-04-01T07:32:44.647Z,12
2016-04-01T07:33:44.729Z,12
2016-04-01T07:34:44.528Z,12
2016-04-01T07:35:44.484Z,12
2016-04-01T07:36:44.424Z,16
2016-04-01T07:37:44.380Z,16
2016-04-01T07:38:44.336Z,16
2016-04-01T07:39:44.276Z,12
2016-04-01T07:40:44.248Z,16
2016-04-01T07:41:44.156Z,16
2016-04-01T07:42:44.143Z,16
2016-04-01T07:43:44.068Z,20
2016-04-01T07:44:43.995Z,20
2016-04-01T07:45:43.950Z,16
2016-04-01T07:46:43.875Z,16
2016-04-01T07:47:43.831Z,20
2016-04-01T07:48:43.833Z,24
2016-04-01T07:49:43.705Z,20
2016-04-01T07:50:43.656Z,24
2016-04-01T07:51:43.606Z,20
2016-04-01T07:52:43.541Z,24
2016-04-01T07:53:43.492Z,20
2016-04-01T07:54:43.398Z,20
2016-04-01T07:55:43.352Z,16
2016-04-01T07:56:43.321Z,20
2016-04-01T07:57:43.244Z,16
2016-04-01T07:58:43.198Z,20
2016-04-01T07:59:43.138Z,20
2016-04-01T08:00:43.109Z,24
2016-04-01T08:01:43.064Z,24
2016-04-01T08:02:43.003Z,24
2016-04-01T08:03:43.052Z,32
2016-04-01T08:05:42.853Z,40
2016-04-01T08:06:42.777Z,36
2016-04-01T08:07:42.764Z,32
2016-04-01T08:08:42.719Z,36
2016-04-01T08:09:42.660Z,40
2016-04-01T08:10:42.584Z,44
2016-04-01T08:11:42.556Z,48
2016-04-01T08:12:42.527Z,48
2016-04-01T08:13:42.452Z,44
2016-04-01T08:14:42.392Z,52
2016-04-01T08:15:42.348Z,56
2016-04-01T08:16:42.304Z,52
2016-04-01T08:17:42.259Z,52
2016-04-01T08:18:42.590Z,56
2016-04-01T08:19:42.140Z,60
2016-04-01T08:20:42.111Z,56
2016-04-01T08:21:42.051Z,56
2016-04-01T08:22:41.991Z,60
2016-04-01T08:23:41.947Z,60
2016-04-01T08:24:41.887Z,56
2016-04-01T08:25:41.875Z,64
2016-04-01T08:26:41.830Z,68
2016-04-01T08:27:41.754Z,64
2016-04-01T08:28:41.710Z,68
2016-04-01T08:29:41.698Z,60
2016-04-01T08:30:41.622Z,52
2016-04-01T08:31:41.594Z,48
2016-04-01T08:32:41.534Z,44
2016-04-01T08:33:41.349Z,40
2016-04-01T08:34:41.430Z,40
2016-04-01T08:35:41.339Z,36
2016-04-01T08:36:41.326Z,40
2016-04-01T08:37:41.282Z,40
2016-04-01T08:38:41.207Z,40
2016-04-01T08:39:41.177Z,40
2016-04-01T08:40:41.134Z,36
2016-04-01T08:41:41.043Z,36
2016-04-01T08:42:40.998Z,32
2016-04-01T08:43:40.970Z,36
2016-04-01T08:44:40.910Z,40
2016-04-01T08:45:40.882Z,44
2016-04-01T08:46:40.821Z,48
2016-04-01T08:47:40.778Z,52
2016-04-01T08:48:40.749Z,52
2016-04-01T08:49:40.548Z,52
2016-04-01T08:50:40.614Z,52
2016-04-01T08:51:40.554Z,52
2016-04-01T08:52:40.526Z,56
2016-04-01T08:53:40.465Z,64
2016-04-01T08:54:40.422Z,80
2016-04-01T08:55:40.378Z,64
2016-04-01T08:56:40.302Z,64
2016-04-01T08:57:40.289Z,52
2016-04-01T08:58:40.260Z,48
2016-04-01T08:59:40.185Z,44
2016-04-01T09:00:40.156Z,44
2016-04-01T09:01:40.065Z,44
2016-04-01T09:02:40.036Z,44
2016-04-01T09:03:40.055Z,52
2016-04-01T09:04:39.948Z,52
2016-04-01T09:05:39.888Z,52
2016-04-01T09:06:39.829Z,48
2016-04-01T09:07:39.785Z,48
2016-04-01T09:08:39.740Z,48
2016-04-01T09:09:39.680Z,48
2016-04-01T09:10:39.621Z,48
2016-04-01T09:11:39.592Z,48
2016-04-01T09:12:39.532Z,52
2016-04-01T09:13:39.519Z,60
2016-04-01T09:14:39.428Z,68
2016-04-01T09:15:39.384Z,72
2016-04-01T09:16:39.356Z,76
2016-04-01T09:17:39.296Z,76
2016-04-01T09:18:39.173Z,72
2016-04-01T09:19:39.207Z,64
2016-04-01T09:20:39.132Z,60
2016-04-01T09:21:39.119Z,60
2016-04-01T09:22:39.059Z,56
2016-04-01T09:23:38.999Z,56
2016-04-01T09:24:38.939Z,60
2016-04-01T09:25:38.895Z,64
2016-04-01T09:26:38.835Z,64
2016-04-01T09:27:38.791Z,76
2016-04-01T09:28:38.763Z,76
2016-04-01T09:29:38.702Z,88
2016-04-01T09:30:38.658Z,100
2016-04-01T09:31:38.599Z,128
2016-04-01T09:32:38.570Z,128
2016-04-01T09:33:38.573Z,128
2016-04-01T09:34:38.467Z,144
2016-04-01T09:35:38.438Z,136
2016-04-01T09:36:38.206Z,124
2016-04-01T09:37:38.303Z,156
2016-04-01T09:38:38.274Z,120
2016-04-01T09:39:38.199Z,148
2016-04-01T09:40:38.154Z,132
2016-04-01T09:41:38.141Z,136
2016-04-01T09:42:38.066Z,152
2016-04-01T09:43:38.038Z,152
2016-04-01T09:44:37.977Z,152
2016-04-01T09:45:37.949Z,172
2016-04-01T09:46:37.874Z,184
2016-04-01T09:47:37.861Z,168
2016-04-01T09:48:37.677Z,148
2016-04-01T09:49:37.773Z,176
2016-04-01T09:50:37.698Z,176
2016-04-01T09:51:37.668Z,200
2016-04-01T09:52:37.609Z,212
2016-04-01T09:53:37.580Z,212
2016-04-01T09:54:37.520Z,212
2016-04-01T09:55:37.351Z,200
2016-04-01T09:56:37.401Z,204
2016-04-01T09:57:37.341Z,192
2016-04-01T09:58:37.312Z,164
2016-04-01T09:59:37.268Z,156
2016-04-01T10:00:37.255Z,148
2016-04-01T10:01:37.164Z,148
2016-04-01T10:02:37.135Z,164
2016-04-01T10:03:37.153Z,156
2016-04-01T10:04:37.031Z,100
2016-04-01T10:05:37.002Z,88
2016-04-01T10:06:36.833Z,72
2016-04-01T10:07:36.883Z,72
2016-04-01T10:08:36.855Z,72
2016-04-01T10:09:36.764Z,88
2016-04-01T10:10:36.720Z,100
2016-04-01T10:11:36.691Z,96
2016-04-01T10:12:36.616Z,108
2016-04-01T10:13:36.602Z,108
2016-04-01T10:14:36.558Z,160
2016-04-01T10:15:36.529Z,164
2016-04-01T10:16:36.470Z,140
2016-04-01T10:17:36.379Z,112
2016-04-01T10:18:36.179Z,128
2016-04-01T10:19:36.322Z,152
2016-04-01T10:20:36.262Z,152
2016-04-01T10:21:36.202Z,140
2016-04-01T10:22:36.158Z,132
2016-04-01T10:23:36.114Z,168
2016-04-01T10:24:36.054Z,128
2016-04-01T10:25:36.009Z,108
2016-04-01T10:26:35.997Z,80
2016-04-01T10:27:35.921Z,80
2016-04-01T10:28:35.925Z,68
2016-04-01T10:29:35.833Z,68
2016-04-01T10:30:35.773Z,68
2016-04-01T10:31:35.728Z,64
2016-04-01T10:32:35.685Z,68
2016-04-01T10:33:35.688Z,80
2016-04-01T10:34:35.612Z,76
2016-04-01T10:35:35.553Z,76
2016-04-01T10:36:35.509Z,76
2016-04-01T10:37:35.449Z,68
2016-04-01T10:38:35.389Z,72
2016-04-01T10:39:35.344Z,68
2016-04-01T10:40:35.300Z,72
2016-04-01T10:41:35.255Z,72
2016-04-01T10:42:35.196Z,76
2016-04-01T10:43:35.152Z,76
2016-04-01T10:44:35.093Z,84
2016-04-01T10:45:35.080Z,80
2016-04-01T10:46:34.988Z,80
2016-04-01T10:47:34.944Z,84
2016-04-01T10:48:34.759Z,84
2016-04-01T10:49:34.090Z,72
2016-04-01T10:50:34.811Z,56
2016-04-01T10:51:34.751Z,48
2016-04-01T10:52:34.692Z,44
2016-04-01T10:53:34.648Z,44
2016-04-01T10:54:34.620Z,44
2016-04-01T10:55:33.825Z,44
2016-04-01T10:56:35.062Z,36
2016-04-01T10:57:34.330Z,32
2016-04-01T10:58:34.426Z,36
2016-04-01T10:59:34.367Z,36
2016-04-01T11:00:34.339Z,40
2016-04-01T11:01:34.278Z,40
2016-04-01T11:02:34.219Z,40
2016-04-01T11:03:34.269Z,40
2016-04-01T11:04:34.114Z,32
2016-04-01T11:05:34.055Z,32
2016-04-01T11:06:33.307Z,32
2016-04-01T11:07:33.959Z,28
2016-04-01T11:08:33.931Z,28
2016-04-01T11:09:33.903Z,28
2016-04-01T11:10:33.828Z,28
2016-04-01T11:11:33.767Z,28
2016-04-01T11:12:33.723Z,28
2016-04-01T11:13:33.663Z,28
2016-04-01T11:14:33.619Z,20
2016-04-01T11:15:33.575Z,24
2016-04-01T11:16:33.516Z,24
2016-04-01T11:17:33.456Z,20
2016-04-01T11:18:33.271Z,20
2016-04-01T11:19:33.367Z,24
2016-04-01T11:20:33.322Z,28
2016-04-01T11:21:33.294Z,28
2016-04-01T11:22:33.234Z,28
2016-04-01T11:23:33.174Z,36
2016-04-01T11:24:33.115Z,36
2016-04-01T11:25:33.071Z,32
2016-04-01T11:26:32.261Z,32
2016-04-01T11:27:32.951Z,32
2016-04-01T11:28:32.923Z,32
2016-04-01T11:29:32.846Z,28
2016-04-01T11:30:32.803Z,24
2016-04-01T11:31:32.758Z,24
2016-04-01T11:32:32.714Z,24
2016-04-01T11:33:32.654Z,24
2016-04-01T11:34:32.626Z,20
2016-04-01T11:35:32.567Z,24
2016-04-01T11:36:32.506Z,24
2016-04-01T11:37:32.462Z,28
2016-04-01T11:38:32.402Z,28
2016-04-01T11:39:32.342Z,24
2016-04-01T11:40:32.314Z,28
2016-04-01T11:41:32.270Z,28
2016-04-01T11:42:32.211Z,24
2016-04-01T11:43:32.134Z,24
2016-04-01T11:44:32.122Z,20
2016-04-01T11:45:32.047Z,16
2016-04-01T11:46:32.002Z,20
2016-04-01T11:47:31.942Z,16
2016-04-01T11:48:31.882Z,20
2016-04-01T11:49:31.839Z,20
2016-04-01T11:50:31.810Z,16
2016-04-01T11:51:30.985Z,16
2016-04-01T11:52:31.675Z,16
2016-04-01T11:53:31.677Z,12
2016-04-01T11:54:31.586Z,12
2016-04-01T11:55:31.526Z,12
2016-04-01T11:56:31.482Z,12
2016-04-01T11:57:31.421Z,12
2016-04-01T11:58:31.393Z,16
2016-04-01T11:59:31.334Z,20
2016-04-01T12:00:31.274Z,24
2016-04-01T12:01:31.199Z,24
2016-04-01T12:02:31.139Z,20
2016-04-01T12:03:31.126Z,16
2016-04-01T12:04:31.081Z,20
2016-04-01T12:05:31.053Z,20
2016-04-01T12:06:30.993Z,24
2016-04-01T12:07:30.934Z,24
2016-04-01T12:08:31.406Z,24
2016-04-01T12:09:30.814Z,24
2016-04-01T12:10:30.786Z,24
2016-04-01T12:11:30.709Z,20
2016-04-01T12:12:30.650Z,24
2016-04-01T12:13:30.605Z,28
2016-04-01T12:14:30.546Z,24
2016-04-01T12:15:30.470Z,24
2016-04-01T12:16:30.427Z,32
2016-04-01T12:17:30.398Z,40
2016-04-01T12:18:33.698Z,48
2016-04-01T12:19:30.294Z,56
2016-04-01T12:20:30.250Z,56
2016-04-01T12:21:31.346Z,52
2016-04-01T12:22:30.130Z,44
2016-04-01T12:23:30.070Z,36
2016-04-01T12:24:30.026Z,28
2016-04-01T12:25:29.966Z,36
2016-04-01T12:26:29.921Z,40
2016-04-01T12:27:29.863Z,36
2016-04-01T12:28:29.834Z,32
2016-04-01T12:29:29.665Z,32
2016-04-01T12:30:29.698Z,28
2016-04-01T12:31:29.513Z,28
2016-04-01T12:32:29.610Z,32
2016-04-01T12:33:29.582Z,36
2016-04-01T12:34:29.522Z,36
2016-04-01T12:35:29.462Z,48
2016-04-01T12:36:29.418Z,56
2016-04-01T12:37:29.373Z,60
2016-04-01T12:38:29.298Z,56
2016-04-01T12:39:29.254Z,52
2016-04-01T12:40:29.194Z,40
2016-04-01T12:41:29.165Z,36
2016-04-01T12:42:29.121Z,36
2016-04-01T12:43:29.062Z,40
2016-04-01T12:44:29.033Z,48
2016-04-01T12:45:28.958Z,52
2016-04-01T12:46:28.897Z,52
2016-04-01T12:47:28.838Z,56
2016-04-01T12:48:28.825Z,52
2016-04-01T12:49:28.780Z,52
2016-04-01T12:50:28.736Z,44
2016-04-01T12:51:28.676Z,40
2016-04-01T12:52:28.616Z,36
2016-04-01T12:53:28.557Z,36
2016-04-01T12:54:28.482Z,40
2016-04-01T12:55:28.453Z,44
2016-04-01T12:56:28.394Z,48
2016-04-01T12:57:28.365Z,48
2016-04-01T12:58:28.290Z,44
2016-04-01T12:59:28.229Z,40
2016-04-01T13:00:28.186Z,32
2016-04-01T13:01:28.110Z,28
2016-04-01T13:02:27.332Z,28
2016-04-01T13:03:28.054Z,28
2016-04-01T13:04:27.993Z,24
2016-04-01T13:05:27.965Z,28
2016-04-01T13:06:27.889Z,32
2016-04-01T13:07:27.829Z,32
2016-04-01T13:08:27.769Z,32
2016-04-01T13:09:27.725Z,32
2016-04-01T13:10:27.697Z,36
2016-04-01T13:11:27.621Z,36
2016-04-01T13:12:27.562Z,32
2016-04-01T13:13:27.517Z,28
2016-04-01T13:14:27.473Z,28
2016-04-01T13:15:27.444Z,28
2016-04-01T13:16:27.400Z,28
2016-04-01T13:17:27.356Z,32
2016-04-01T13:18:27.264Z,32
2016-04-01T13:19:27.236Z,32
2016-04-01T13:20:27.160Z,32
2016-04-01T13:21:27.117Z,36
2016-04-01T13:22:27.057Z,32
2016-04-01T13:23:27.013Z,36
2016-04-01T13:24:26.984Z,36
2016-04-01T13:25:26.940Z,36
2016-04-01T13:26:26.880Z,40
2016-04-01T13:27:26.821Z,36
2016-04-01T13:28:26.761Z,32
2016-04-01T13:29:26.717Z,28
2016-04-01T13:30:26.657Z,28
2016-04-01T13:31:26.613Z,28
2016-04-01T13:32:26.552Z,28
2016-04-01T13:33:26.493Z,32
2016-04-01T13:34:26.448Z,36
2016-04-01T13:35:26.389Z,40
2016-04-01T13:36:26.360Z,36
2016-04-01T13:37:26.315Z,32
2016-04-01T13:38:26.273Z,32
2016-04-01T13:39:26.196Z,28
2016-04-01T13:40:26.153Z,28
2016-04-01T13:41:26.092Z,24
2016-04-01T13:42:26.033Z,28
2016-04-01T13:43:26.004Z,24
2016-04-01T13:44:25.772Z,24
2016-04-01T13:45:25.916Z,20
2016-04-01T13:46:25.855Z,20
2016-04-01T13:47:25.796Z,20
2016-04-01T13:48:25.752Z,24
2016-04-01T13:49:25.692Z,20
2016-04-01T13:50:25.633Z,24
2016-04-01T13:51:25.588Z,28
2016-04-01T13:52:25.544Z,24
2016-04-01T13:53:25.483Z,24
2016-04-01T13:54:25.425Z,24
2016-04-01T13:55:25.380Z,20
2016-04-01T13:56:25.321Z,20
2016-04-01T13:57:25.277Z,16
2016-04-01T13:58:25.216Z,16
2016-04-01T13:59:25.172Z,16
2016-04-01T14:00:25.127Z,16
2016-04-01T14:01:25.084Z,16
2016-04-01T14:02:25.054Z,20
2016-04-01T14:03:24.964Z,20
2016-04-01T14:04:24.920Z,20
2016-04-01T14:05:24.891Z,20
2016-04-01T14:06:24.832Z,20
2016-04-01T14:07:24.757Z,20
2016-04-01T14:08:24.696Z,24
2016-04-01T14:09:24.668Z,20
2016-04-01T14:10:24.623Z,20
2016-04-01T14:11:24.579Z,12
2016-04-01T14:12:24.503Z,16
2016-04-01T14:13:24.491Z,12
2016-04-01T14:14:24.431Z,12
2016-04-01T14:15:24.168Z,16
2016-04-01T14:16:24.328Z,16
2016-04-01T14:17:24.283Z,16
2016-04-01T14:18:24.192Z,16
2016-04-01T14:19:24.163Z,16
2016-04-01T14:20:24.119Z,16
2016-04-01T14:21:24.044Z,12
2016-04-01T14:22:23.984Z,12
2016-04-01T14:23:23.956Z,16
2016-04-01T14:24:23.896Z,16
2016-04-01T14:25:23.867Z,16
2016-04-01T14:26:23.791Z,20
2016-04-01T14:27:23.747Z,20
2016-04-01T14:28:23.688Z,20